createdAt,value
2017-08-27T08:28:49.686Z,71.51
2017-08-27T08:31:19.135Z,71.60
2017-08-27T08:33:48.646Z,69.94
2017-08-27T08:36:18.171Z,70.30
2017-08-27T08:38:47.560Z,70.92
2017-08-27T08:41:16.949Z,70.28
2017-08-27T08:43:46.303Z,70.29
2017-08-27T08:46:15.692Z,69.27
2017-08-27T08:48:45.247Z,67.82
2017-08-27T08:51:14.685Z,67.64
2017-08-27T08:53:44.069Z,68.82
2017-08-27T08:56:13.892Z,68.76
2017-08-27T08:58:43.573Z,67.93
2017-08-27T09:01:13.103Z,66.79
2017-08-27T09:03:42.472Z,66.81
2017-08-27T09:06:11.855Z,65.29
2017-08-27T09:08:41.249Z,65.84
2017-08-27T09:11:10.653Z,62.77
2017-08-27T09:13:40.093Z,61.95
2017-08-27T09:16:09.509Z,63.62
2017-08-27T09:18:38.977Z,61.37
2017-08-27T09:21:08.407Z,59.51
2017-08-27T09:23:37.846Z,55.63
2017-08-27T09:26:07.395Z,61.34
2017-08-27T09:28:36.816Z,62.76
2017-08-27T09:31:06.266Z,62.50
2017-08-27T09:33:35.752Z,61.67
2017-08-27T09:36:05.270Z,61.11
2017-08-27T09:38:34.639Z,62.75
2017-08-27T09:41:04.039Z,59.17
2017-08-27T09:43:33.388Z,59.59
2017-08-27T09:46:02.847Z,61.70
2017-08-27T09:48:32.248Z,60.42
2017-08-27T09:51:01.707Z,60.84
2017-08-27T09:53:31.452Z,58.84
2017-08-27T09:56:01.222Z,56.64
2017-08-27T09:58:30.605Z,57.79
2017-08-27T10:01:00.025Z,58.76
2017-08-27T10:03:29.732Z,58.75
2017-08-27T10:05:59.207Z,56.28
2017-08-27T10:08:28.616Z,55.33
2017-08-27T10:10:58.057Z,49.89
2017-08-27T10:13:27.472Z,51.07
2017-08-27T10:15:56.877Z,54.15
2017-08-27T10:18:26.270Z,49.06
2017-08-27T10:20:55.738Z,47.67
2017-08-27T10:23:25.146Z,47.93
2017-08-27T10:25:54.632Z,47.22
2017-08-27T10:28:24.096Z,47.26
2017-08-27T10:30:53.574Z,47.89
2017-08-27T10:33:22.971Z,45.24
2017-08-27T10:35:52.586Z,45.10
2017-08-27T10:38:21.954Z,47.06
2017-08-27T10:40:51.385Z,45.65
2017-08-27T10:43:20.817Z,47.81
2017-08-27T10:45:50.244Z,48.25
2017-08-27T10:48:19.688Z,49.40
2017-08-27T10:50:49.159Z,47.59
2017-08-27T10:53:18.633Z,50.78
2017-08-27T10:55:48.091Z,51.15
2017-08-27T10:58:17.631Z,53.07
2017-08-27T11:00:47.036Z,54.47
2017-08-27T11:03:16.761Z,52.89
2017-08-27T11:05:46.533Z,53.42
2017-08-27T11:08:15.910Z,54.09
2017-08-27T11:10:45.316Z,56.00
2017-08-27T11:13:15.382Z,56.18
2017-08-27T11:15:44.836Z,57.34
2017-08-27T11:18:14.296Z,57.67
2017-08-27T11:20:43.837Z,56.57
2017-08-27T11:23:13.333Z,57.58
2017-08-27T11:25:42.791Z,57.55
2017-08-27T11:28:13.104Z,57.26
2017-08-27T11:30:42.584Z,56.29
2017-08-27T11:33:14.196Z,56.08
2017-08-27T11:35:43.615Z,55.55
2017-08-27T11:38:13.035Z,54.38
2017-08-27T11:40:42.814Z,54.07
2017-08-27T11:43:13.835Z,56.15
2017-08-27T11:45:44.833Z,54.93
2017-08-27T11:48:14.558Z,56.05
2017-08-27T11:50:45.904Z,57.29
2017-08-27T11:53:16.945Z,55.96
2017-08-27T11:55:47.835Z,55.96
2017-08-27T11:58:17.569Z,55.24
2017-08-27T12:00:47.048Z,56.65
2017-08-27T12:03:17.045Z,54.96
2017-08-27T12:05:46.484Z,54.80
2017-08-27T12:08:16.225Z,54.45
2017-08-27T12:10:45.887Z,55.65
2017-08-27T12:13:15.279Z,55.54
2017-08-27T12:15:44.746Z,55.01
2017-08-27T12:18:14.748Z,57.34
2017-08-27T12:20:44.312Z,59.22
2017-08-27T12:23:13.762Z,58.60
2017-08-27T12:25:43.424Z,59.33
2017-08-27T12:28:12.940Z,58.96
2017-08-27T12:30:42.851Z,57.25
2017-08-27T12:33:13.263Z,56.99
2017-08-27T12:35:44.180Z,58.39
2017-08-27T12:38:14.680Z,58.81
2017-08-27T12:40:44.120Z,57.83
2017-08-27T12:43:13.665Z,56.98
2017-08-27T12:45:43.044Z,57.76
2017-08-27T12:48:13.065Z,56.94
2017-08-27T12:50:42.513Z,56.98
2017-08-27T12:53:12.067Z,56.79
2017-08-27T12:55:41.699Z,57.44
2017-08-27T12:58:11.164Z,57.49
2017-08-27T13:00:40.674Z,56.32
2017-08-27T13:03:10.149Z,56.62
2017-08-27T13:05:39.638Z,56.25
2017-08-27T13:08:09.240Z,56.25
2017-08-27T13:10:38.969Z,56.68
2017-08-27T13:13:08.474Z,55.81
2017-08-27T13:15:38.058Z,57.00
2017-08-27T13:18:10.592Z,57.85
2017-08-27T13:20:40.261Z,59.06
2017-08-27T13:23:09.978Z,55.85
2017-08-27T13:25:39.687Z,55.75
2017-08-27T13:28:09.333Z,55.64
2017-08-27T13:30:38.780Z,56.45
2017-08-27T13:33:08.442Z,56.00
2017-08-27T13:35:38.719Z,53.92
2017-08-27T13:38:08.097Z,55.91
2017-08-27T13:40:38.049Z,55.48
2017-08-27T13:43:07.532Z,56.31
2017-08-27T13:45:37.116Z,55.54
2017-08-27T13:48:06.584Z,56.14
2017-08-27T13:50:36.109Z,56.55
2017-08-27T13:53:05.748Z,56.56
2017-08-27T13:55:35.278Z,56.43
2017-08-27T13:58:04.685Z,55.92
2017-08-27T14:00:34.297Z,56.29
2017-08-27T14:03:04.066Z,56.47
2017-08-27T14:05:33.630Z,58.15
2017-08-27T14:08:03.235Z,58.98
2017-08-27T14:10:32.701Z,57.20
2017-08-27T14:13:02.073Z,55.88
2017-08-27T14:15:31.505Z,56.16
2017-08-27T14:18:00.890Z,55.65
2017-08-27T14:20:31.097Z,56.34
2017-08-27T14:23:00.602Z,55.77
2017-08-27T14:25:30.347Z,54.66
2017-08-27T14:28:00.213Z,53.31
2017-08-27T14:30:29.646Z,55.21
2017-08-27T14:32:59.362Z,55.66
2017-08-27T14:35:42.767Z,54.30
2017-08-27T14:38:14.498Z,54.25
2017-08-27T14:40:44.166Z,54.61
2017-08-27T14:43:13.711Z,54.77
2017-08-27T14:45:43.551Z,54.72
2017-08-27T14:48:17.472Z,52.03
2017-08-27T14:51:13.451Z,53.06
2017-08-27T14:53:43.049Z,52.29
2017-08-27T14:56:12.460Z,53.49
2017-08-27T14:58:41.809Z,51.51
2017-08-27T15:01:11.625Z,50.47
2017-08-27T15:03:41.055Z,48.50
2017-08-27T15:06:10.675Z,49.31
2017-08-27T15:08:40.184Z,49.51
2017-08-27T15:11:09.617Z,49.15
2017-08-27T15:13:39.357Z,50.26
2017-08-27T15:16:08.910Z,49.30
2017-08-27T15:18:38.405Z,50.30
2017-08-27T15:21:07.907Z,51.33
2017-08-27T15:23:37.416Z,50.61
2017-08-27T15:26:06.925Z,51.47
2017-08-27T15:28:36.445Z,50.89
2017-08-27T15:31:06.084Z,52.32
2017-08-27T15:33:35.649Z,51.46
2017-08-27T15:36:07.332Z,50.87
2017-08-27T15:38:37.725Z,52.31
2017-08-27T15:41:07.468Z,51.62
2017-08-27T15:43:37.550Z,51.22
2017-08-27T15:46:07.276Z,52.27
2017-08-27T15:48:36.866Z,51.37
2017-08-27T15:51:07.836Z,50.56
2017-08-27T15:53:37.216Z,50.83
2017-08-27T15:56:06.760Z,51.40
2017-08-27T15:58:36.198Z,51.59
2017-08-27T16:01:05.705Z,50.56
2017-08-27T16:03:35.116Z,50.23
2017-08-27T16:06:04.540Z,51.78
2017-08-27T16:08:34.156Z,50.39
2017-08-27T16:11:03.671Z,52.69
2017-08-27T16:13:33.101Z,51.73
2017-08-27T16:16:02.617Z,51.59
2017-08-27T16:18:32.004Z,50.49
2017-08-27T16:21:01.461Z,51.30
2017-08-27T16:23:32.634Z,51.89
2017-08-27T16:26:02.319Z,52.78
2017-08-27T16:28:31.700Z,53.65
2017-08-27T16:31:01.108Z,52.32
2017-08-27T16:33:30.650Z,52.47
2017-08-27T16:36:00.608Z,52.28
2017-08-27T16:38:31.616Z,51.62
2017-08-27T16:41:01.101Z,52.09
2017-08-27T16:43:30.498Z,52.03
2017-08-27T16:46:00.037Z,54.76
2017-08-27T16:48:29.493Z,54.84
2017-08-27T16:50:58.955Z,53.60
2017-08-27T16:53:28.358Z,54.18
2017-08-27T16:55:58.615Z,53.05
2017-08-27T16:58:28.065Z,53.64
2017-08-27T17:00:57.491Z,54.02
2017-08-27T17:03:26.890Z,53.91
2017-08-27T17:05:56.436Z,53.55
2017-08-27T17:08:25.811Z,54.74
2017-08-27T17:10:55.843Z,54.67
2017-08-27T17:13:25.276Z,54.50
2017-08-27T17:15:54.739Z,55.03
2017-08-27T17:18:24.291Z,53.84
2017-08-27T17:20:53.764Z,54.08
2017-08-27T17:23:23.155Z,54.88
2017-08-27T17:25:52.673Z,55.53
2017-08-27T17:28:22.136Z,55.25
2017-08-27T17:30:51.612Z,55.66
2017-08-27T17:33:21.933Z,56.22
2017-08-27T17:35:51.391Z,56.05
2017-08-27T17:38:20.738Z,55.86
